createdAt,value
2018-03-07T00:00:11.977Z,44.80
2018-03-07T00:02:40.248Z,45.90
2018-03-07T00:05:09.272Z,49.23
2018-03-07T00:07:37.547Z,47.57
2018-03-07T00:10:06.568Z,46.97
2018-03-07T00:12:34.836Z,46.63
2018-03-07T00:15:03.858Z,47.23
2018-03-07T00:17:32.132Z,49.67
2018-03-07T00:20:01.156Z,50.40
2018-03-07T00:22:29.423Z,49.60
2018-03-07T00:24:58.446Z,50.97
2018-03-07T00:27:26.719Z,51.70
2018-03-07T00:29:55.744Z,50.77
2018-03-07T00:32:24.015Z,52.40
2018-03-07T00:34:53.040Z,52.50
2018-03-07T00:37:21.315Z,54.80
2018-03-07T00:39:50.336Z,53.40
2018-03-07T00:42:18.607Z,51.10
2018-03-07T00:44:47.631Z,54.90
2018-03-07T00:47:15.900Z,58.27
2018-03-07T00:49:44.920Z,55.77
2018-03-07T00:52:13.191Z,54.20
2018-03-07T00:54:42.219Z,51.77
2018-03-07T00:57:10.480Z,52.97
2018-03-07T00:59:38.743Z,53.47
2018-03-07T01:02:07.007Z,54.10
2018-03-07T01:04:35.267Z,52.73
2018-03-07T01:07:03.577Z,55.47
2018-03-07T01:09:31.815Z,55.07
2018-03-07T01:12:00.076Z,58.77
2018-03-07T01:14:28.342Z,61.87
2018-03-07T01:16:56.595Z,64.27
2018-03-07T01:19:25.632Z,61.67
2018-03-07T01:21:53.886Z,61.17
2018-03-07T01:24:22.920Z,60.80
2018-03-07T01:26:51.177Z,60.40
2018-03-07T01:29:20.209Z,63.17
2018-03-07T01:31:48.464Z,57.77
2018-03-07T01:34:16.727Z,59.57
2018-03-07T01:36:44.988Z,56.80
2018-03-07T01:39:13.260Z,58.03
2018-03-07T01:41:41.527Z,59.67
2018-03-07T01:44:10.563Z,60.20
2018-03-07T01:46:38.820Z,60.47
2018-03-07T01:49:07.855Z,61.87
2018-03-07T01:51:53.891Z,61.97
2018-03-07T01:54:22.234Z,61.60
2018-03-07T01:56:51.255Z,59.20
2018-03-07T01:59:19.520Z,58.77
2018-03-07T02:01:48.547Z,56.57
2018-03-07T02:04:16.820Z,58.47
2018-03-07T02:06:45.853Z,58.57
2018-03-07T02:09:14.892Z,61.30
2018-03-07T02:11:43.154Z,66.50
2018-03-07T02:14:11.451Z,68.00
2018-03-07T02:16:39.714Z,67.77
2018-03-07T02:19:07.988Z,64.00
2018-03-07T02:21:37.015Z,62.80
2018-03-07T02:24:05.287Z,59.30
2018-03-07T02:26:33.547Z,61.73
2018-03-07T02:29:01.815Z,63.07
2018-03-07T02:31:30.089Z,66.67
2018-03-07T02:33:58.357Z,64.90
2018-03-07T02:36:33.267Z,67.27
2018-03-07T02:39:02.312Z,68.67
2018-03-07T02:41:30.575Z,70.23
2018-03-07T02:43:59.613Z,68.87
2018-03-07T02:46:27.879Z,76.27
2018-03-07T02:48:56.160Z,72.47
2018-03-07T02:51:25.189Z,73.57
2018-03-07T02:53:53.531Z,64.90
2018-03-07T02:56:22.493Z,65.07
2018-03-07T02:58:50.769Z,64.57
2018-03-07T03:01:19.032Z,67.87
2018-03-07T03:03:48.064Z,68.30
2018-03-07T03:06:16.330Z,71.03
2018-03-07T03:08:45.359Z,70.57
2018-03-07T03:11:13.621Z,69.83
2018-03-07T03:13:42.659Z,67.33
2018-03-07T03:16:10.933Z,68.40
2018-03-07T03:18:39.203Z,64.90
2018-03-07T03:21:08.227Z,66.47
2018-03-07T03:23:36.499Z,67.50
2018-03-07T03:26:05.525Z,66.87
2018-03-07T03:28:33.803Z,69.00
2018-03-07T03:31:02.065Z,67.80
2018-03-07T03:33:30.353Z,76.90
2018-03-07T03:35:58.616Z,73.37
2018-03-07T03:38:26.888Z,74.60
2018-03-07T03:40:55.151Z,74.57
2018-03-07T03:43:23.436Z,75.80
2018-03-07T03:45:51.695Z,79.67
2018-03-07T03:48:19.972Z,77.87
2018-03-07T03:50:48.316Z,81.07
2018-03-07T03:53:16.583Z,68.70
2018-03-07T03:55:45.611Z,71.37
2018-03-07T03:58:13.893Z,74.00
2018-03-07T04:00:42.156Z,70.47
2018-03-07T04:03:11.203Z,70.60
2018-03-07T04:05:39.463Z,70.57
2018-03-07T04:08:08.516Z,72.80
2018-03-07T04:10:36.783Z,71.30
2018-03-07T04:13:05.832Z,76.47
2018-03-07T04:15:34.087Z,74.57
2018-03-07T04:18:02.356Z,73.23
2018-03-07T04:20:30.643Z,78.13
2018-03-07T04:22:58.899Z,81.80
2018-03-07T04:25:27.993Z,78.60
2018-03-07T04:27:56.214Z,73.93
2018-03-07T04:30:25.252Z,75.50
2018-03-07T04:32:53.520Z,76.40
2018-03-07T04:35:21.796Z,74.67
2018-03-07T04:37:50.819Z,74.70
2018-03-07T04:40:19.099Z,74.13
2018-03-07T04:42:47.367Z,72.93
2018-03-07T04:45:16.409Z,75.43
2018-03-07T04:47:45.309Z,68.37
2018-03-07T04:50:13.578Z,69.37
2018-03-07T04:52:41.844Z,72.60
2018-03-07T04:55:10.116Z,71.33
2018-03-07T04:57:38.392Z,68.70
2018-03-07T05:00:06.668Z,71.30
2018-03-07T05:02:35.003Z,71.60
2018-03-07T05:05:03.249Z,71.23
2018-03-07T05:07:31.511Z,70.63
2018-03-07T05:09:59.783Z,69.27
2018-03-07T05:12:28.807Z,66.60
2018-03-07T05:14:57.847Z,69.20
2018-03-07T05:17:26.312Z,69.53
2018-03-07T05:19:54.584Z,68.93
2018-03-07T05:22:22.848Z,71.53
2018-03-07T05:24:51.119Z,73.67
2018-03-07T05:27:19.377Z,70.53
2018-03-07T05:29:47.648Z,73.57
2018-03-07T05:32:15.906Z,75.47
2018-03-07T05:34:44.947Z,72.83
2018-03-07T05:37:13.207Z,73.23
2018-03-07T05:39:42.236Z,68.80
2018-03-07T05:42:10.511Z,70.67
2018-03-07T05:44:39.556Z,76.57
2018-03-07T05:47:07.812Z,74.03
2018-03-07T05:49:36.084Z,74.73
2018-03-07T05:52:05.111Z,73.90
2018-03-07T05:54:34.569Z,72.00
2018-03-07T05:57:02.823Z,67.37
2018-03-07T05:59:31.097Z,66.13
2018-03-07T06:02:00.127Z,67.17
2018-03-07T06:04:28.402Z,70.07
2018-03-07T06:06:56.665Z,66.03
2018-03-07T06:09:25.728Z,66.67
2018-03-07T06:11:53.988Z,64.80
2018-03-07T06:14:22.258Z,66.57
2018-03-07T06:16:51.285Z,66.03
2018-03-07T06:19:19.551Z,68.70
2018-03-07T06:21:48.584Z,64.50
2018-03-07T06:26:52.320Z,64.47
2018-03-07T06:29:20.546Z,63.53
2018-03-07T06:31:48.808Z,67.60
2018-03-07T06:34:17.080Z,69.70
2018-03-07T06:36:45.339Z,71.53
2018-03-07T06:39:13.616Z,72.27
2018-03-07T06:41:42.865Z,75.73
2018-03-07T06:44:11.903Z,78.60
2018-03-07T06:46:40.164Z,77.17
2018-03-07T06:49:08.434Z,79.77
2018-03-07T06:51:37.467Z,73.37
2018-03-07T06:54:05.744Z,75.27
2018-03-07T06:56:34.007Z,79.47
2018-03-07T06:59:02.272Z,76.23
2018-03-07T07:01:30.532Z,73.47
2018-03-07T07:03:58.791Z,79.27
2018-03-07T07:06:27.068Z,78.13
2018-03-07T07:08:56.092Z,81.30
2018-03-07T07:11:25.267Z,77.30
2018-03-07T07:13:53.528Z,79.10
2018-03-07T07:16:21.792Z,82.87
2018-03-07T07:18:50.047Z,76.77
2018-03-07T07:21:19.088Z,76.50
2018-03-07T07:23:47.350Z,74.70
2018-03-07T07:26:16.379Z,73.37
2018-03-07T07:28:44.640Z,74.00
2018-03-07T07:31:13.674Z,74.17
2018-03-07T07:33:41.941Z,72.30
2018-03-07T07:36:10.973Z,73.03
2018-03-07T07:38:43.748Z,70.40
2018-03-07T07:41:12.025Z,74.30
2018-03-07T07:43:41.052Z,72.83
2018-03-07T07:46:09.324Z,70.20
2018-03-07T07:48:38.360Z,74.77
2018-03-07T07:51:06.624Z,76.60
2018-03-07T07:53:35.651Z,71.90
2018-03-07T07:56:03.919Z,74.37
2018-03-07T07:58:32.188Z,71.43
2018-03-07T08:01:02.147Z,73.40
2018-03-07T08:03:30.411Z,74.00
2018-03-07T08:05:59.496Z,75.83
2018-03-07T08:08:27.706Z,69.83
2018-03-07T08:10:56.739Z,71.70
2018-03-07T08:13:25.000Z,74.77
2018-03-07T08:15:54.045Z,76.10
2018-03-07T08:18:22.313Z,75.70
2018-03-07T08:20:51.413Z,79.63
2018-03-07T08:23:20.440Z,77.07
2018-03-07T08:25:48.711Z,71.57
2018-03-07T08:28:16.981Z,76.90
2018-03-07T08:30:45.247Z,74.97
2018-03-07T08:33:13.615Z,74.30
2018-03-07T08:35:41.935Z,74.90
2018-03-07T08:38:10.151Z,72.77
2018-03-07T08:40:39.180Z,70.83
2018-03-07T08:43:07.440Z,75.10
2018-03-07T08:45:36.481Z,70.90
2018-03-07T08:48:04.749Z,73.57
2018-03-07T08:50:33.780Z,73.93
2018-03-07T08:53:02.036Z,71.20
2018-03-07T08:55:31.070Z,71.50
2018-03-07T08:57:59.328Z,68.23
2018-03-07T09:00:28.358Z,71.53
2018-03-07T09:02:56.619Z,66.80
2018-03-07T09:05:25.651Z,66.63
2018-03-07T09:07:53.915Z,66.10
2018-03-07T09:10:22.951Z,68.87
2018-03-07T09:12:51.219Z,68.67
2018-03-07T09:15:20.259Z,68.00
2018-03-07T09:17:48.515Z,70.20
2018-03-07T09:20:17.556Z,71.47
2018-03-07T09:22:45.819Z,68.73
2018-03-07T09:25:14.092Z,69.33
2018-03-07T09:27:43.127Z,72.37
2018-03-07T09:30:12.163Z,70.47
2018-03-07T09:32:40.420Z,71.50
2018-03-07T09:35:08.695Z,72.33
2018-03-07T09:37:36.956Z,72.70
2018-03-07T09:40:05.353Z,69.50
2018-03-07T09:42:34.380Z,72.20
2018-03-07T09:45:02.829Z,71.10
2018-03-07T09:47:31.098Z,72.83
2018-03-07T09:49:59.363Z,75.53
2018-03-07T09:52:27.624Z,80.50
2018-03-07T09:54:56.656Z,79.83
2018-03-07T09:57:24.927Z,76.60
2018-03-07T09:59:53.948Z,73.13
2018-03-07T10:02:22.219Z,73.00
2018-03-07T10:04:51.250Z,74.60
2018-03-07T10:07:19.523Z,75.10
2018-03-07T10:09:47.780Z,80.63
2018-03-07T10:12:16.047Z,76.93
2018-03-07T10:14:44.313Z,81.07
2018-03-07T10:17:12.588Z,81.27
2018-03-07T10:19:41.609Z,80.53
2018-03-07T10:22:09.880Z,83.77
2018-03-07T10:24:38.136Z,88.37
2018-03-07T10:27:06.412Z,82.30
2018-03-07T10:29:34.679Z,85.27
2018-03-07T10:32:02.935Z,86.87
2018-03-07T10:34:31.193Z,83.97
2018-03-07T10:37:00.225Z,84.00
2018-03-07T10:39:28.487Z,84.83
2018-03-07T10:41:57.524Z,86.40
2018-03-07T10:44:25.783Z,94.37
2018-03-07T10:46:54.828Z,75.73
2018-03-07T10:49:23.087Z,94.07
2018-03-07T10:51:52.128Z,88.23
2018-03-07T10:54:20.387Z,90.63
2018-03-07T10:56:49.887Z,89.53
2018-03-07T10:59:18.911Z,86.50
2018-03-07T11:01:47.951Z,91.07
2018-03-07T11:04:16.217Z,86.10
2018-03-07T11:06:44.483Z,87.87
2018-03-07T11:09:13.508Z,83.10
2018-03-07T11:11:41.779Z,79.07
2018-03-07T11:14:10.809Z,78.80
2018-03-07T11:16:39.079Z,77.13
2018-03-07T11:19:08.103Z,73.40
2018-03-07T11:21:36.376Z,75.03
2018-03-07T11:24:05.400Z,72.93
2018-03-07T11:26:33.671Z,76.53
2018-03-07T11:29:02.707Z,76.00
2018-03-07T11:31:30.971Z,74.60
2018-03-07T11:33:59.237Z,71.50
2018-03-07T11:36:27.508Z,78.00
2018-03-07T11:38:55.772Z,80.10
2018-03-07T11:41:24.043Z,80.57
2018-03-07T11:43:52.308Z,78.57
2018-03-07T11:46:20.588Z,79.97
2018-03-07T11:48:49.619Z,83.30
2018-03-07T11:51:17.891Z,87.23
2018-03-07T11:53:46.923Z,80.87
2018-03-07T11:56:15.192Z,80.23
2018-03-07T11:58:43.459Z,77.03
2018-03-07T12:01:11.732Z,80.87
2018-03-07T12:03:39.999Z,78.40
2018-03-07T12:06:08.272Z,81.90
2018-03-07T12:08:36.537Z,85.47
2018-03-07T12:11:04.804Z,85.70
2018-03-07T12:13:33.828Z,81.30
2018-03-07T12:16:02.108Z,84.27
2018-03-07T12:18:31.131Z,79.40
2018-03-07T12:20:59.390Z,87.50
2018-03-07T12:23:28.420Z,79.67
2018-03-07T12:25:56.675Z,76.80
2018-03-07T12:28:24.948Z,82.23
2018-03-07T12:30:53.223Z,81.07
2018-03-07T12:33:21.487Z,81.70
2018-03-07T12:35:49.752Z,83.97
2018-03-07T12:38:18.790Z,82.97
2018-03-07T12:40:47.047Z,85.07
2018-03-07T12:43:16.084Z,84.57
2018-03-07T12:45:44.343Z,86.87
2018-03-07T12:48:13.379Z,83.87
2018-03-07T12:50:41.636Z,81.33
2018-03-07T12:53:10.672Z,82.17
2018-03-07T12:55:39.696Z,72.17
2018-03-07T12:58:07.969Z,75.07
2018-03-07T13:00:36.222Z,71.33
2018-03-07T13:03:05.255Z,75.27
2018-03-07T13:05:33.519Z,73.83
2018-03-07T13:08:02.551Z,69.53
2018-03-07T13:10:30.811Z,70.73
2018-03-07T13:12:59.851Z,67.23
2018-03-07T13:15:28.101Z,71.37
2018-03-07T13:17:57.136Z,68.23
2018-03-07T13:20:25.392Z,63.93
2018-03-07T13:22:53.656Z,67.23
2018-03-07T13:25:21.917Z,62.30
2018-03-07T13:27:50.179Z,61.53
2018-03-07T13:30:18.478Z,60.67
2018-03-07T13:32:46.703Z,61.53
2018-03-07T13:35:14.963Z,58.97
2018-03-07T13:37:43.228Z,53.33
2018-03-07T13:40:12.252Z,53.63
2018-03-07T13:42:40.516Z,51.00
2018-03-07T13:45:08.771Z,47.07
2018-03-07T13:47:37.035Z,49.20
2018-03-07T13:50:06.056Z,46.77
2018-03-07T13:52:34.319Z,49.00
2018-03-07T13:55:02.576Z,49.80
2018-03-07T13:57:31.608Z,44.50
2018-03-07T13:59:59.860Z,43.23
2018-03-07T14:02:28.888Z,43.17
2018-03-07T14:04:57.156Z,44.93
2018-03-07T14:07:26.184Z,45.17
2018-03-07T14:09:54.435Z,43.87
2018-03-07T14:12:22.699Z,44.30
2018-03-07T14:14:50.961Z,48.50
2018-03-07T14:17:19.223Z,44.00
2018-03-07T14:19:48.244Z,44.70
2018-03-07T14:22:16.512Z,43.57
2018-03-07T14:24:45.535Z,44.53
2018-03-07T14:27:13.802Z,44.67
2018-03-07T14:29:42.052Z,46.37
2018-03-07T14:32:10.315Z,45.00
2018-03-07T14:34:38.579Z,44.97
2018-03-07T14:37:07.597Z,43.17
2018-03-07T14:39:35.851Z,47.00
2018-03-07T14:42:04.108Z,45.10
2018-03-07T14:44:32.372Z,43.53
2018-03-07T14:47:00.627Z,47.17
2018-03-07T14:49:30.159Z,46.00
2018-03-07T14:51:59.185Z,48.50
2018-03-07T14:54:27.452Z,48.70
2018-03-07T14:56:56.475Z,49.23
2018-03-07T14:59:25.266Z,49.90
2018-03-07T15:01:54.327Z,52.10
2018-03-07T15:04:22.593Z,50.50
2018-03-07T15:06:50.851Z,53.47
2018-03-07T15:09:19.127Z,53.87
2018-03-07T15:11:48.148Z,56.70
2018-03-07T15:14:16.420Z,54.07
2018-03-07T15:16:45.513Z,56.57
2018-03-07T15:19:13.712Z,61.00
2018-03-07T15:21:45.286Z,62.17
2018-03-07T15:24:13.740Z,61.80
2018-03-07T15:26:42.005Z,59.33
2018-03-07T15:29:10.276Z,63.20
2018-03-07T15:31:38.536Z,61.83
2018-03-07T15:34:07.572Z,67.97
2018-03-07T15:36:35.836Z,66.50
2018-03-07T15:39:04.876Z,65.53
2018-03-07T15:41:33.512Z,65.97
2018-03-07T15:44:01.790Z,62.37
2018-03-07T15:46:30.053Z,63.07
2018-03-07T15:48:58.320Z,67.67
2018-03-07T15:51:26.583Z,67.80
2018-03-07T15:53:55.613Z,69.33
2018-03-07T15:56:23.868Z,68.80
2018-03-07T15:58:52.139Z,71.30
2018-03-07T16:01:20.403Z,65.13
2018-03-07T16:03:48.677Z,65.03
2018-03-07T16:06:17.088Z,63.50
2018-03-07T16:08:45.356Z,63.00
2018-03-07T16:11:13.615Z,64.00
2018-03-07T16:13:42.652Z,59.47
2018-03-07T16:16:10.911Z,58.77
2018-03-07T16:18:39.941Z,52.80
2018-03-07T16:21:08.205Z,52.73
2018-03-07T16:23:38.319Z,44.60
2018-03-07T16:26:06.574Z,44.37
2018-03-07T16:28:35.024Z,38.10
2018-03-07T16:31:03.284Z,39.43
2018-03-07T16:33:31.552Z,38.90
2018-03-07T16:35:59.818Z,35.37
2018-03-07T16:38:28.840Z,33.50
2018-03-07T16:40:57.106Z,32.20
2018-03-07T16:43:25.366Z,28.90
2018-03-07T16:45:54.399Z,28.07
2018-03-07T16:48:22.656Z,26.43
2018-03-07T16:50:51.688Z,27.83
2018-03-07T16:53:19.942Z,25.23
2018-03-07T16:55:48.971Z,25.83
2018-03-07T16:58:17.224Z,25.97
2018-03-07T17:00:45.495Z,23.83
2018-03-07T17:03:13.747Z,22.33
2018-03-07T17:05:42.037Z,22.20
2018-03-07T17:08:10.292Z,22.50
2018-03-07T17:10:39.312Z,21.17
2018-03-07T17:13:08.343Z,19.60
2018-03-07T17:15:36.603Z,19.40
2018-03-07T17:18:05.631Z,19.20
2018-03-07T17:20:33.896Z,19.00
2018-03-07T17:23:02.931Z,19.63
2018-03-07T17:25:31.187Z,20.23
2018-03-07T17:28:00.228Z,20.10
2018-03-07T17:30:28.486Z,19.20
2018-03-07T17:32:57.515Z,19.07
2018-03-07T17:35:25.764Z,19.37
2018-03-07T17:37:54.032Z,20.20
2018-03-07T17:40:22.289Z,20.87
2018-03-07T17:42:51.213Z,19.30
2018-03-07T17:45:26.668Z,20.63
2018-03-07T17:47:54.932Z,19.47
2018-03-07T17:50:23.187Z,21.37
2018-03-07T17:52:51.458Z,21.30
2018-03-07T17:58:03.131Z,19.77
2018-03-07T18:00:32.144Z,20.07
2018-03-07T18:03:01.172Z,20.93
2018-03-07T18:05:29.436Z,21.40
2018-03-07T18:07:58.479Z,19.90
2018-03-07T18:10:27.499Z,19.33
2018-03-07T18:12:55.763Z,19.43
2018-03-07T18:15:24.016Z,20.90
2018-03-07T18:17:53.052Z,23.10
2018-03-07T18:20:21.307Z,22.60
2018-03-07T18:22:50.336Z,20.60
2018-03-07T18:25:18.591Z,24.17
2018-03-07T18:27:46.852Z,23.30
2018-03-07T18:30:15.867Z,24.00
2018-03-07T18:32:44.136Z,22.30
2018-03-07T18:35:12.552Z,21.20
2018-03-07T18:37:40.815Z,23.67
2018-03-07T18:40:09.084Z,22.17
2018-03-07T18:42:37.348Z,23.57
2018-03-07T18:45:06.383Z,24.50
2018-03-07T18:47:34.640Z,23.93
2018-03-07T18:50:03.692Z,22.07
2018-03-07T18:52:31.940Z,21.73
2018-03-07T18:55:00.975Z,21.10
2018-03-07T18:57:29.232Z,22.67
2018-03-07T18:59:58.266Z,23.30
2018-03-07T19:02:26.523Z,24.10
2018-03-07T19:04:55.559Z,24.33
2018-03-07T19:07:23.816Z,25.13
2018-03-07T19:09:52.848Z,23.60
2018-03-07T19:12:21.107Z,25.50
2018-03-07T19:14:50.140Z,24.40
2018-03-07T19:17:18.395Z,24.37
2018-03-07T19:19:46.663Z,24.87
2018-03-07T19:22:14.928Z,24.13
2018-03-07T19:24:43.195Z,23.90
2018-03-07T19:27:11.464Z,23.13
2018-03-07T19:29:40.495Z,23.20
2018-03-07T19:32:08.757Z,23.97
2018-03-07T19:34:37.796Z,25.10
2018-03-07T19:37:06.048Z,24.83
2018-03-07T19:39:35.083Z,23.53
2018-03-07T19:42:03.340Z,23.60
2018-03-07T19:44:32.371Z,22.63
2018-03-07T19:47:00.627Z,22.20
2018-03-07T19:49:28.891Z,21.93
2018-03-07T19:51:57.157Z,21.80
2018-03-07T19:54:25.444Z,19.60
2018-03-07T19:56:54.428Z,19.67
2018-03-07T19:59:23.461Z,21.23
2018-03-07T20:01:51.718Z,21.20
2018-03-07T20:04:19.971Z,21.63
2018-03-07T20:06:48.239Z,22.83
2018-03-07T20:09:16.493Z,23.00
2018-03-07T20:11:44.755Z,23.20
2018-03-07T20:14:13.775Z,21.60
2018-03-07T20:16:42.031Z,23.97
2018-03-07T20:19:10.292Z,24.10
2018-03-07T20:21:38.559Z,23.67
2018-03-07T20:24:06.843Z,18.33
2018-03-07T20:26:35.108Z,20.87
2018-03-07T20:29:04.134Z,20.53
2018-03-07T20:31:32.481Z,19.50
2018-03-07T20:34:01.415Z,19.77
2018-03-07T20:36:30.447Z,18.37
2018-03-07T20:38:58.704Z,17.60
2018-03-07T20:41:27.749Z,17.67
2018-03-07T20:43:56.003Z,16.57
2018-03-07T20:46:24.268Z,16.60
2018-03-07T20:48:52.519Z,14.60
2018-03-07T20:51:20.783Z,15.07
2018-03-07T20:53:49.036Z,14.63
2018-03-07T20:56:17.300Z,14.03
2018-03-07T20:58:45.552Z,12.80
2018-03-07T21:01:13.820Z,13.30
2018-03-07T21:03:42.835Z,13.40
2018-03-07T21:06:11.112Z,13.37
2018-03-07T21:08:40.133Z,12.70
2018-03-07T21:11:08.400Z,12.63
2018-03-07T21:13:37.419Z,12.50
2018-03-07T21:16:05.685Z,11.70
2018-03-07T21:18:33.936Z,11.80
2018-03-07T21:21:02.212Z,11.77
2018-03-07T21:23:30.464Z,11.90
2018-03-07T21:25:59.496Z,11.47
2018-03-07T21:28:27.744Z,10.77
2018-03-07T21:30:56.576Z,11.00
2018-03-07T21:33:24.832Z,10.67
2018-03-07T21:35:53.099Z,10.80
2018-03-07T21:38:21.351Z,11.50
2018-03-07T21:40:49.611Z,10.73
2018-03-07T21:43:18.631Z,11.53
2018-03-07T21:45:46.891Z,11.63
2018-03-07T21:48:15.147Z,11.10
2018-03-07T21:50:43.412Z,11.17
2018-03-07T21:53:11.663Z,12.53
2018-03-07T21:55:40.693Z,11.60
2018-03-07T21:58:08.947Z,10.97
2018-03-07T22:00:37.211Z,11.80
2018-03-07T22:03:05.471Z,12.10
2018-03-07T22:05:33.732Z,11.30
2018-03-07T22:08:02.758Z,12.73
2018-03-07T22:10:31.016Z,12.30
2018-03-07T22:12:59.263Z,12.40
2018-03-07T22:15:27.524Z,11.50
2018-03-07T22:17:55.779Z,12.43
2018-03-07T22:20:24.816Z,12.73
2018-03-07T22:23:02.967Z,13.30
2018-03-07T22:25:31.228Z,12.57
2018-03-07T22:27:59.488Z,12.50
2018-03-07T22:30:28.511Z,11.77
2018-03-07T22:32:56.767Z,11.50
2018-03-07T22:35:25.028Z,13.83
2018-03-07T22:37:53.312Z,13.90
2018-03-07T22:40:21.548Z,13.23
2018-03-07T22:42:50.581Z,12.73
2018-03-07T22:45:18.846Z,13.80
2018-03-07T22:47:47.859Z,13.47
2018-03-07T22:50:16.891Z,12.40
2018-03-07T22:52:45.151Z,12.97
2018-03-07T22:55:14.175Z,14.77
2018-03-07T22:57:42.436Z,14.57
2018-03-07T23:00:25.876Z,14.97
2018-03-07T23:02:54.131Z,15.67
2018-03-07T23:05:22.416Z,16.60
2018-03-07T23:07:50.667Z,15.77
2018-03-07T23:10:18.919Z,15.87
2018-03-07T23:12:47.183Z,17.23
2018-03-07T23:15:15.432Z,16.73
2018-03-07T23:17:43.699Z,16.87
2018-03-07T23:20:12.717Z,16.70
2018-03-07T23:22:41.747Z,17.83
2018-03-07T23:25:10.009Z,18.33
2018-03-07T23:27:39.040Z,19.33
2018-03-07T23:30:07.295Z,18.67
2018-03-07T23:32:36.334Z,18.97
2018-03-07T23:35:04.579Z,19.13
2018-03-07T23:37:32.866Z,18.10
2018-03-07T23:40:01.095Z,18.37
2018-03-07T23:42:29.359Z,19.03
2018-03-07T23:44:58.375Z,19.77
2018-03-07T23:47:26.635Z,18.77
2018-03-07T23:49:54.891Z,20.03
2018-03-07T23:52:23.162Z,19.63
2018-03-07T23:54:51.419Z,20.10
2018-03-07T23:57:20.447Z,19.07
2018-03-07T23:59:48.716Z,18.77
